Ketchikan International Airport

Date: 2024-06-11 04:53:00Z

Type: METAR

Weather: Light Rain

Winds: 150° at 6 kts

Visibility: 5

Ceiling (AGL FT): Clouds SCATTERED at 1200, OVERCAST at 2000, SCATTERED at 9500, BROKEN at 20000

RAW METAR: PAKT 110453Z 15006KT 5SM -RA BR SCT012 OVC020 11/10 A2986 RMK AO2 SLP112 P0003 T01110100

project-image